TX89 weather

Memorial Hermann Sugar Land Hospital Heliport
Sugar Land, Texas, United States

Public forecast

Using degrees Fahrenheit for public forecast. Weather courtesy of forecast.io.

METAR (pilot weather report)

Closest report is Sugar Land Regional Airport, 3.8 nm (7.1 km) NNE. Retrieved 2019/07/20 14:53 UTC (32 minutes ago):

KSGR 201453Z 18008KT 10SM FEW020 31/26 A3000 RMK AO2 SLP160 T03060256 50007

TAF (pilot weather forecast)

Closest forecast is Sugar Land Regional Airport, 3.8 nm (7.1 km) NNE. Retrieved 2019/07/20 12:33 UTC (3 hours ago):

TAF KSGR 201130Z 2012/2112 18005KT P6SM SCT018 BKN200 FM201500 16006KT P6SM SCT018 BKN045 FM202100 16011KT P6SM FEW035 SCT100 FM210100 15008KT P6SM SCT035 BKN150 FM211000 00000KT P6SM FEW020 SCT150